sensor_id;sensor_type;location;lat;lon;timestamp;temperature;humidity
55211;DHT22;41082;52.822;6.666;2023-07-28T00:00:06;18.70;99.90
55211;DHT22;41082;52.822;6.666;2023-07-28T00:02:33;18.70;99.90
55211;DHT22;41082;52.822;6.666;2023-07-28T00:04:59;18.70;99.90
55211;DHT22;41082;52.822;6.666;2023-07-28T00:07:24;18.70;99.90
55211;DHT22;41082;52.822;6.666;2023-07-28T00:09:50;18.70;99.90
55211;DHT22;41082;52.822;6.666;2023-07-28T00:12:15;18.70;99.90
55211;DHT22;41082;52.822;6.666;2023-07-28T00:14:41;18.70;99.90
55211;DHT22;41082;52.822;6.666;2023-07-28T00:17:06;18.70;99.90
55211;DHT22;41082;52.822;6.666;2023-07-28T00:19:32;18.70;99.90
55211;DHT22;41082;52.822;6.666;2023-07-28T00:21:58;18.70;99.90
55211;DHT22;41082;52.822;6.666;2023-07-28T00:24:23;18.70;99.90
55211;DHT22;41082;52.822;6.666;2023-07-28T00:26:49;18.70;99.90
55211;DHT22;41082;52.822;6.666;2023-07-28T00:29:15;18.70;99.90
55211;DHT22;41082;52.822;6.666;2023-07-28T00:31:41;18.70;99.90
55211;DHT22;41082;52.822;6.666;2023-07-28T00:34:06;18.70;99.90
55211;DHT22;41082;52.822;6.666;2023-07-28T00:36:32;18.60;99.90
55211;DHT22;41082;52.822;6.666;2023-07-28T00:38:58;18.70;99.90
55211;DHT22;41082;52.822;6.666;2023-07-28T00:41:24;18.70;99.90
55211;DHT22;41082;52.822;6.666;2023-07-28T00:43:49;18.70;99.90
55211;DHT22;41082;52.822;6.666;2023-07-28T00:46:16;18.60;99.90
55211;DHT22;41082;52.822;6.666;2023-07-28T00:48:43;18.60;99.90
55211;DHT22;41082;52.822;6.666;2023-07-28T00:51:09;18.70;99.90
55211;DHT22;41082;52.822;6.666;2023-07-28T00:53:35;18.60;99.90
55211;DHT22;41082;52.822;6.666;2023-07-28T00:56:01;18.70;99.90
55211;DHT22;41082;52.822;6.666;2023-07-28T00:58:27;18.60;99.90
55211;DHT22;41082;52.822;6.666;2023-07-28T01:00:53;18.70;99.90
55211;DHT22;41082;52.822;6.666;2023-07-28T01:03:20;18.70;99.90
55211;DHT22;41082;52.822;6.666;2023-07-28T01:08:19;18.70;99.90
55211;DHT22;41082;52.822;6.666;2023-07-28T01:10:47;18.60;99.90
55211;DHT22;41082;52.822;6.666;2023-07-28T01:13:12;18.70;99.90
55211;DHT22;41082;52.822;6.666;2023-07-28T01:15:38;18.70;99.90
55211;DHT22;41082;52.822;6.666;2023-07-28T01:18:03;18.70;99.90
55211;DHT22;41082;52.822;6.666;2023-07-28T01:20:31;18.70;99.90
55211;DHT22;41082;52.822;6.666;2023-07-28T01:23:09;18.70;99.90
55211;DHT22;41082;52.822;6.666;2023-07-28T01:28:26;18.70;99.90
55211;DHT22;41082;52.822;6.666;2023-07-28T01:30:52;18.70;99.90
55211;DHT22;41082;52.822;6.666;2023-07-28T01:33:17;18.70;99.90
55211;DHT22;41082;52.822;6.666;2023-07-28T01:35:43;18.70;99.90
55211;DHT22;41082;52.822;6.666;2023-07-28T01:38:08;18.70;99.90
55211;DHT22;41082;52.822;6.666;2023-07-28T01:40:34;18.60;99.90
55211;DHT22;41082;52.822;6.666;2023-07-28T01:42:59;18.70;99.90
55211;DHT22;41082;52.822;6.666;2023-07-28T01:45:25;18.60;99.90
55211;DHT22;41082;52.822;6.666;2023-07-28T01:47:51;18.70;99.90
55211;DHT22;41082;52.822;6.666;2023-07-28T01:50:16;18.60;99.90
55211;DHT22;41082;52.822;6.666;2023-07-28T01:52:42;18.60;99.90
55211;DHT22;41082;52.822;6.666;2023-07-28T01:55:07;18.60;99.90
55211;DHT22;41082;52.822;6.666;2023-07-28T01:57:33;18.60;99.90
55211;DHT22;41082;52.822;6.666;2023-07-28T02:00:00;18.70;99.90
55211;DHT22;41082;52.822;6.666;2023-07-28T02:02:25;18.60;99.90
55211;DHT22;41082;52.822;6.666;2023-07-28T02:04:51;18.60;99.90
55211;DHT22;41082;52.822;6.666;2023-07-28T02:07:16;18.60;99.90
55211;DHT22;41082;52.822;6.666;2023-07-28T02:09:42;18.60;99.90
55211;DHT22;41082;52.822;6.666;2023-07-28T02:12:08;18.60;99.90
55211;DHT22;41082;52.822;6.666;2023-07-28T02:14:33;18.60;99.90
55211;DHT22;41082;52.822;6.666;2023-07-28T02:16:59;18.60;99.90
55211;DHT22;41082;52.822;6.666;2023-07-28T02:19:25;18.60;99.90
55211;DHT22;41082;52.822;6.666;2023-07-28T02:21:50;18.60;99.90
55211;DHT22;41082;52.822;6.666;2023-07-28T02:24:16;18.60;99.90
55211;DHT22;41082;52.822;6.666;2023-07-28T02:26:41;18.60;99.90
55211;DHT22;41082;52.822;6.666;2023-07-28T02:29:07;18.60;99.90
55211;DHT22;41082;52.822;6.666;2023-07-28T02:31:33;18.60;99.90
55211;DHT22;41082;52.822;6.666;2023-07-28T02:33:58;18.60;99.90
55211;DHT22;41082;52.822;6.666;2023-07-28T02:36:24;18.60;99.90
55211;DHT22;41082;52.822;6.666;2023-07-28T02:38:49;18.60;99.90
55211;DHT22;41082;52.822;6.666;2023-07-28T02:41:15;18.50;99.90
55211;DHT22;41082;52.822;6.666;2023-07-28T02:43:40;18.60;99.90
55211;DHT22;41082;52.822;6.666;2023-07-28T02:46:06;18.60;99.90
55211;DHT22;41082;52.822;6.666;2023-07-28T02:48:32;18.50;99.90
55211;DHT22;41082;52.822;6.666;2023-07-28T02:50:58;18.60;99.90
55211;DHT22;41082;52.822;6.666;2023-07-28T02:53:23;18.60;99.90
55211;DHT22;41082;52.822;6.666;2023-07-28T02:55:49;18.60;99.90
55211;DHT22;41082;52.822;6.666;2023-07-28T02:58:15;18.60;99.90
55211;DHT22;41082;52.822;6.666;2023-07-28T03:00:41;18.60;99.90
55211;DHT22;41082;52.822;6.666;2023-07-28T03:03:09;18.60;99.90
55211;DHT22;41082;52.822;6.666;2023-07-28T03:05:38;18.60;99.90
55211;DHT22;41082;52.822;6.666;2023-07-28T03:08:05;18.60;99.90
55211;DHT22;41082;52.822;6.666;2023-07-28T03:10:31;18.60;99.90
55211;DHT22;41082;52.822;6.666;2023-07-28T03:12:57;18.60;99.90
55211;DHT22;41082;52.822;6.666;2023-07-28T03:15:23;18.60;99.90
55211;DHT22;41082;52.822;6.666;2023-07-28T03:17:51;18.60;99.90
55211;DHT22;41082;52.822;6.666;2023-07-28T03:20:18;18.60;99.90
55211;DHT22;41082;52.822;6.666;2023-07-28T03:22:44;18.60;99.90
55211;DHT22;41082;52.822;6.666;2023-07-28T03:25:09;18.60;99.90
55211;DHT22;41082;52.822;6.666;2023-07-28T03:27:35;18.60;99.90
55211;DHT22;41082;52.822;6.666;2023-07-28T03:30:01;18.60;99.90
55211;DHT22;41082;52.822;6.666;2023-07-28T03:32:27;18.70;99.90
55211;DHT22;41082;52.822;6.666;2023-07-28T03:34:52;18.70;99.90
55211;DHT22;41082;52.822;6.666;2023-07-28T03:37:18;18.60;99.90
55211;DHT22;41082;52.822;6.666;2023-07-28T03:39:44;18.70;99.90
55211;DHT22;41082;52.822;6.666;2023-07-28T03:42:10;18.70;99.90
55211;DHT22;41082;52.822;6.666;2023-07-28T03:44:36;18.60;99.90
55211;DHT22;41082;52.822;6.666;2023-07-28T03:47:03;18.60;99.90
55211;DHT22;41082;52.822;6.666;2023-07-28T03:49:29;18.60;99.90
55211;DHT22;41082;52.822;6.666;2023-07-28T03:51:55;18.70;99.90
55211;DHT22;41082;52.822;6.666;2023-07-28T03:54:20;18.60;99.90
55211;DHT22;41082;52.822;6.666;2023-07-28T03:56:46;18.70;99.90
55211;DHT22;41082;52.822;6.666;2023-07-28T03:59:11;18.60;99.90
55211;DHT22;41082;52.822;6.666;2023-07-28T04:01:37;18.70;99.90
55211;DHT22;41082;52.822;6.666;2023-07-28T04:04:03;18.60;99.90
55211;DHT22;41082;52.822;6.666;2023-07-28T04:06:46;18.60;99.90
55211;DHT22;41082;52.822;6.666;2023-07-28T04:09:15;18.60;99.90
55211;DHT22;41082;52.822;6.666;2023-07-28T04:11:41;18.60;99.90
55211;DHT22;41082;52.822;6.666;2023-07-28T04:14:07;18.60;99.90
55211;DHT22;41082;52.822;6.666;2023-07-28T04:16:33;18.70;99.90
55211;DHT22;41082;52.822;6.666;2023-07-28T04:18:59;18.60;99.90
55211;DHT22;41082;52.822;6.666;2023-07-28T04:21:25;18.60;99.90
55211;DHT22;41082;52.822;6.666;2023-07-28T04:23:51;18.70;99.90
55211;DHT22;41082;52.822;6.666;2023-07-28T04:26:17;18.60;99.90
55211;DHT22;41082;52.822;6.666;2023-07-28T04:28:43;18.60;99.90
55211;DHT22;41082;52.822;6.666;2023-07-28T04:31:09;18.70;99.90
55211;DHT22;41082;52.822;6.666;2023-07-28T04:33:34;18.70;99.90
55211;DHT22;41082;52.822;6.666;2023-07-28T04:36:03;18.70;99.90
55211;DHT22;41082;52.822;6.666;2023-07-28T04:38:29;18.70;99.90
55211;DHT22;41082;52.822;6.666;2023-07-28T04:40:54;18.70;99.90
55211;DHT22;41082;52.822;6.666;2023-07-28T04:43:20;18.80;99.90
55211;DHT22;41082;52.822;6.666;2023-07-28T04:45:45;18.70;99.90
55211;DHT22;41082;52.822;6.666;2023-07-28T04:48:11;18.70;99.90
55211;DHT22;41082;52.822;6.666;2023-07-28T04:50:37;18.70;99.90
55211;DHT22;41082;52.822;6.666;2023-07-28T04:53:03;18.80;99.90
55211;DHT22;41082;52.822;6.666;2023-07-28T04:55:29;18.70;99.90
55211;DHT22;41082;52.822;6.666;2023-07-28T04:57:55;18.80;99.90
55211;DHT22;41082;52.822;6.666;2023-07-28T05:00:20;18.80;99.90
55211;DHT22;41082;52.822;6.666;2023-07-28T05:02:46;18.80;99.90
55211;DHT22;41082;52.822;6.666;2023-07-28T05:05:11;18.80;99.90
55211;DHT22;41082;52.822;6.666;2023-07-28T05:07:37;18.80;99.90
55211;DHT22;41082;52.822;6.666;2023-07-28T05:10:03;18.80;99.90
55211;DHT22;41082;52.822;6.666;2023-07-28T05:12:28;18.80;99.90
55211;DHT22;41082;52.822;6.666;2023-07-28T05:14:54;18.80;99.90
55211;DHT22;41082;52.822;6.666;2023-07-28T05:17:20;18.80;99.90
55211;DHT22;41082;52.822;6.666;2023-07-28T05:19:45;18.80;99.90
55211;DHT22;41082;52.822;6.666;2023-07-28T05:22:11;18.80;99.90
55211;DHT22;41082;52.822;6.666;2023-07-28T05:24:36;18.80;99.90
55211;DHT22;41082;52.822;6.666;2023-07-28T05:27:02;18.90;99.90
55211;DHT22;41082;52.822;6.666;2023-07-28T05:29:27;18.90;99.90
55211;DHT22;41082;52.822;6.666;2023-07-28T05:31:53;18.90;99.90
55211;DHT22;41082;52.822;6.666;2023-07-28T05:34:19;18.90;99.90
55211;DHT22;41082;52.822;6.666;2023-07-28T05:36:44;18.90;99.90
55211;DHT22;41082;52.822;6.666;2023-07-28T05:39:10;18.90;99.90
55211;DHT22;41082;52.822;6.666;2023-07-28T05:41:39;18.90;99.90
55211;DHT22;41082;52.822;6.666;2023-07-28T05:44:04;18.90;99.90
55211;DHT22;41082;52.822;6.666;2023-07-28T05:46:30;18.90;99.90
55211;DHT22;41082;52.822;6.666;2023-07-28T05:48:57;19.00;99.90
55211;DHT22;41082;52.822;6.666;2023-07-28T05:51:23;19.00;99.90
55211;DHT22;41082;52.822;6.666;2023-07-28T05:53:51;18.90;99.90
55211;DHT22;41082;52.822;6.666;2023-07-28T05:56:17;19.00;99.90
55211;DHT22;41082;52.822;6.666;2023-07-28T05:58:45;19.00;99.90
55211;DHT22;41082;52.822;6.666;2023-07-28T06:01:11;19.00;99.90
55211;DHT22;41082;52.822;6.666;2023-07-28T06:03:37;19.00;99.90
55211;DHT22;41082;52.822;6.666;2023-07-28T06:06:02;19.10;99.90
55211;DHT22;41082;52.822;6.666;2023-07-28T06:08:28;19.10;99.90
55211;DHT22;41082;52.822;6.666;2023-07-28T06:10:54;19.10;99.90
55211;DHT22;41082;52.822;6.666;2023-07-28T06:13:20;19.20;99.90
55211;DHT22;41082;52.822;6.666;2023-07-28T06:15:47;19.20;99.90
55211;DHT22;41082;52.822;6.666;2023-07-28T06:18:13;19.30;99.90
55211;DHT22;41082;52.822;6.666;2023-07-28T06:20:42;19.30;99.90
55211;DHT22;41082;52.822;6.666;2023-07-28T06:23:08;19.40;99.90
55211;DHT22;41082;52.822;6.666;2023-07-28T06:25:33;19.40;99.90
55211;DHT22;41082;52.822;6.666;2023-07-28T06:27:59;19.50;99.90
55211;DHT22;41082;52.822;6.666;2023-07-28T06:30:24;19.60;99.90
55211;DHT22;41082;52.822;6.666;2023-07-28T06:32:51;19.70;99.90
55211;DHT22;41082;52.822;6.666;2023-07-28T06:35:17;19.80;99.90
55211;DHT22;41082;52.822;6.666;2023-07-28T06:37:42;19.80;99.90
55211;DHT22;41082;52.822;6.666;2023-07-28T06:40:08;19.90;99.90
55211;DHT22;41082;52.822;6.666;2023-07-28T06:42:35;20.00;99.90
55211;DHT22;41082;52.822;6.666;2023-07-28T06:45:04;20.10;99.90
55211;DHT22;41082;52.822;6.666;2023-07-28T06:47:30;20.20;99.90
55211;DHT22;41082;52.822;6.666;2023-07-28T06:49:56;20.30;99.90
55211;DHT22;41082;52.822;6.666;2023-07-28T06:52:21;20.40;99.90
55211;DHT22;41082;52.822;6.666;2023-07-28T06:54:47;20.40;99.90
55211;DHT22;41082;52.822;6.666;2023-07-28T06:57:15;20.40;99.90
55211;DHT22;41082;52.822;6.666;2023-07-28T06:59:41;20.40;99.90
55211;DHT22;41082;52.822;6.666;2023-07-28T07:02:06;20.40;99.90
55211;DHT22;41082;52.822;6.666;2023-07-28T07:04:32;20.40;99.90
55211;DHT22;41082;52.822;6.666;2023-07-28T07:06:58;20.40;99.90
55211;DHT22;41082;52.822;6.666;2023-07-28T07:09:23;20.40;99.90
55211;DHT22;41082;52.822;6.666;2023-07-28T07:11:50;20.40;99.90
55211;DHT22;41082;52.822;6.666;2023-07-28T07:14:16;20.40;99.90
55211;DHT22;41082;52.822;6.666;2023-07-28T07:16:42;20.40;99.90
55211;DHT22;41082;52.822;6.666;2023-07-28T07:19:07;20.30;99.90
55211;DHT22;41082;52.822;6.666;2023-07-28T07:21:34;20.30;99.90
55211;DHT22;41082;52.822;6.666;2023-07-28T07:23:59;20.30;99.90
55211;DHT22;41082;52.822;6.666;2023-07-28T07:26:25;20.30;99.90
55211;DHT22;41082;52.822;6.666;2023-07-28T07:28:51;20.20;99.90
55211;DHT22;41082;52.822;6.666;2023-07-28T07:31:16;20.30;99.90
55211;DHT22;41082;52.822;6.666;2023-07-28T07:33:42;20.30;99.90
55211;DHT22;41082;52.822;6.666;2023-07-28T07:36:15;20.30;99.90
55211;DHT22;41082;52.822;6.666;2023-07-28T07:38:41;20.30;99.90
55211;DHT22;41082;52.822;6.666;2023-07-28T07:41:07;20.30;99.90
55211;DHT22;41082;52.822;6.666;2023-07-28T07:43:34;20.30;99.90
55211;DHT22;41082;52.822;6.666;2023-07-28T07:45:59;20.30;99.90
55211;DHT22;41082;52.822;6.666;2023-07-28T07:48:25;20.20;99.90
55211;DHT22;41082;52.822;6.666;2023-07-28T07:50:51;20.20;99.90
55211;DHT22;41082;52.822;6.666;2023-07-28T07:53:17;20.20;99.90
55211;DHT22;41082;52.822;6.666;2023-07-28T07:55:43;20.20;99.90
55211;DHT22;41082;52.822;6.666;2023-07-28T07:58:08;20.20;99.90
55211;DHT22;41082;52.822;6.666;2023-07-28T08:00:36;20.30;99.90
55211;DHT22;41082;52.822;6.666;2023-07-28T08:03:02;20.30;99.90
55211;DHT22;41082;52.822;6.666;2023-07-28T08:05:27;20.40;99.90
55211;DHT22;41082;52.822;6.666;2023-07-28T08:07:53;20.40;99.90
55211;DHT22;41082;52.822;6.666;2023-07-28T08:10:20;20.50;99.90
55211;DHT22;41082;52.822;6.666;2023-07-28T08:12:45;20.50;99.90
55211;DHT22;41082;52.822;6.666;2023-07-28T08:15:12;20.50;99.90
55211;DHT22;41082;52.822;6.666;2023-07-28T08:17:38;20.60;99.90
55211;DHT22;41082;52.822;6.666;2023-07-28T08:20:06;20.80;99.90
55211;DHT22;41082;52.822;6.666;2023-07-28T08:22:31;20.80;99.90
55211;DHT22;41082;52.822;6.666;2023-07-28T08:24:57;20.90;99.90
55211;DHT22;41082;52.822;6.666;2023-07-28T08:27:23;21.00;99.90
55211;DHT22;41082;52.822;6.666;2023-07-28T08:29:49;21.10;99.90
55211;DHT22;41082;52.822;6.666;2023-07-28T08:32:15;21.40;99.90
55211;DHT22;41082;52.822;6.666;2023-07-28T08:34:40;21.60;99.90
55211;DHT22;41082;52.822;6.666;2023-07-28T08:37:06;21.80;99.90
55211;DHT22;41082;52.822;6.666;2023-07-28T08:39:32;21.90;99.90
55211;DHT22;41082;52.822;6.666;2023-07-28T08:42:00;22.00;99.90
55211;DHT22;41082;52.822;6.666;2023-07-28T08:44:26;22.20;99.90
55211;DHT22;41082;52.822;6.666;2023-07-28T08:46:52;22.30;99.90
55211;DHT22;41082;52.822;6.666;2023-07-28T08:49:18;22.30;99.90
55211;DHT22;41082;52.822;6.666;2023-07-28T08:51:49;22.50;99.90
55211;DHT22;41082;52.822;6.666;2023-07-28T08:54:14;22.50;99.90
55211;DHT22;41082;52.822;6.666;2023-07-28T08:56:43;22.50;99.90
55211;DHT22;41082;52.822;6.666;2023-07-28T08:59:09;22.70;99.90
55211;DHT22;41082;52.822;6.666;2023-07-28T09:01:39;22.80;99.90
55211;DHT22;41082;52.822;6.666;2023-07-28T09:04:10;23.00;99.90
55211;DHT22;41082;52.822;6.666;2023-07-28T09:06:36;23.20;99.90
55211;DHT22;41082;52.822;6.666;2023-07-28T09:09:02;23.30;99.90
55211;DHT22;41082;52.822;6.666;2023-07-28T09:11:32;23.30;99.90
55211;DHT22;41082;52.822;6.666;2023-07-28T09:14:00;23.20;99.90
55211;DHT22;41082;52.822;6.666;2023-07-28T09:16:26;23.10;99.90
55211;DHT22;41082;52.822;6.666;2023-07-28T09:19:06;23.30;99.90
55211;DHT22;41082;52.822;6.666;2023-07-28T09:21:32;23.30;99.90
55211;DHT22;41082;52.822;6.666;2023-07-28T09:24:04;23.30;99.90
55211;DHT22;41082;52.822;6.666;2023-07-28T09:29:23;23.20;99.90
55211;DHT22;41082;52.822;6.666;2023-07-28T09:31:49;23.10;99.90
55211;DHT22;41082;52.822;6.666;2023-07-28T09:34:26;23.10;99.90
55211;DHT22;41082;52.822;6.666;2023-07-28T09:36:55;23.30;99.90
55211;DHT22;41082;52.822;6.666;2023-07-28T09:39:22;23.40;99.90
55211;DHT22;41082;52.822;6.666;2023-07-28T09:41:48;23.50;99.90
55211;DHT22;41082;52.822;6.666;2023-07-28T09:44:14;23.50;99.90
55211;DHT22;41082;52.822;6.666;2023-07-28T09:46:52;23.40;99.90
55211;DHT22;41082;52.822;6.666;2023-07-28T09:49:35;23.30;99.90
55211;DHT22;41082;52.822;6.666;2023-07-28T09:52:05;23.30;99.90
55211;DHT22;41082;52.822;6.666;2023-07-28T09:54:34;23.20;99.90
55211;DHT22;41082;52.822;6.666;2023-07-28T09:57:03;23.30;99.90
55211;DHT22;41082;52.822;6.666;2023-07-28T09:59:32;23.40;99.90
55211;DHT22;41082;52.822;6.666;2023-07-28T10:02:01;23.60;99.90
55211;DHT22;41082;52.822;6.666;2023-07-28T10:04:26;23.70;99.90
55211;DHT22;41082;52.822;6.666;2023-07-28T10:06:53;23.80;99.90
55211;DHT22;41082;52.822;6.666;2023-07-28T10:09:26;23.80;99.90
55211;DHT22;41082;52.822;6.666;2023-07-28T10:11:52;23.90;99.90
55211;DHT22;41082;52.822;6.666;2023-07-28T10:14:37;24.00;99.90
55211;DHT22;41082;52.822;6.666;2023-07-28T10:17:03;24.10;99.90
55211;DHT22;41082;52.822;6.666;2023-07-28T10:19:33;24.00;99.90
55211;DHT22;41082;52.822;6.666;2023-07-28T10:22:10;23.90;99.90
55211;DHT22;41082;52.822;6.666;2023-07-28T10:24:56;23.80;99.90
55211;DHT22;41082;52.822;6.666;2023-07-28T10:27:36;23.80;99.90
55211;DHT22;41082;52.822;6.666;2023-07-28T10:30:04;23.90;99.90
55211;DHT22;41082;52.822;6.666;2023-07-28T10:32:40;24.00;99.90
55211;DHT22;41082;52.822;6.666;2023-07-28T10:35:08;24.20;99.90
55211;DHT22;41082;52.822;6.666;2023-07-28T10:37:36;24.20;99.90
55211;DHT22;41082;52.822;6.666;2023-07-28T10:40:31;24.10;99.90
55211;DHT22;41082;52.822;6.666;2023-07-28T10:42:57;24.00;99.90
55211;DHT22;41082;52.822;6.666;2023-07-28T10:45:25;23.90;99.90
55211;DHT22;41082;52.822;6.666;2023-07-28T10:47:55;24.00;99.90
55211;DHT22;41082;52.822;6.666;2023-07-28T10:50:22;24.00;99.90
55211;DHT22;41082;52.822;6.666;2023-07-28T10:52:47;24.20;99.90
55211;DHT22;41082;52.822;6.666;2023-07-28T10:55:18;24.40;99.90
55211;DHT22;41082;52.822;6.666;2023-07-28T10:57:45;24.70;99.90
55211;DHT22;41082;52.822;6.666;2023-07-28T11:00:12;25.00;99.90
55211;DHT22;41082;52.822;6.666;2023-07-28T11:02:45;25.20;99.90
55211;DHT22;41082;52.822;6.666;2023-07-28T11:05:13;25.30;99.90
55211;DHT22;41082;52.822;6.666;2023-07-28T11:07:45;25.40;99.90
55211;DHT22;41082;52.822;6.666;2023-07-28T11:10:11;25.50;99.90
55211;DHT22;41082;52.822;6.666;2023-07-28T11:12:41;25.50;99.90
55211;DHT22;41082;52.822;6.666;2023-07-28T11:15:11;25.60;99.90
55211;DHT22;41082;52.822;6.666;2023-07-28T11:17:41;25.60;99.90
55211;DHT22;41082;52.822;6.666;2023-07-28T11:20:19;25.70;99.90
55211;DHT22;41082;52.822;6.666;2023-07-28T11:22:47;25.70;99.90
55211;DHT22;41082;52.822;6.666;2023-07-28T11:25:17;25.60;99.90
55211;DHT22;41082;52.822;6.666;2023-07-28T11:27:43;25.40;99.90
55211;DHT22;41082;52.822;6.666;2023-07-28T11:30:12;25.40;99.90
55211;DHT22;41082;52.822;6.666;2023-07-28T11:32:38;25.40;99.90
55211;DHT22;41082;52.822;6.666;2023-07-28T11:35:05;25.50;99.90
55211;DHT22;41082;52.822;6.666;2023-07-28T11:37:33;25.50;99.90
55211;DHT22;41082;52.822;6.666;2023-07-28T11:40:00;25.50;99.90
55211;DHT22;41082;52.822;6.666;2023-07-28T11:42:28;25.40;99.90
55211;DHT22;41082;52.822;6.666;2023-07-28T11:44:53;25.40;99.90
55211;DHT22;41082;52.822;6.666;2023-07-28T11:47:20;25.50;99.90
55211;DHT22;41082;52.822;6.666;2023-07-28T11:49:50;25.70;99.90
55211;DHT22;41082;52.822;6.666;2023-07-28T11:52:19;25.90;99.90
55211;DHT22;41082;52.822;6.666;2023-07-28T11:54:46;26.00;99.90
55211;DHT22;41082;52.822;6.666;2023-07-28T11:57:12;26.00;99.90
55211;DHT22;41082;52.822;6.666;2023-07-28T11:59:38;26.20;99.90
55211;DHT22;41082;52.822;6.666;2023-07-28T12:02:05;26.30;99.90
55211;DHT22;41082;52.822;6.666;2023-07-28T12:04:38;26.40;99.90
55211;DHT22;41082;52.822;6.666;2023-07-28T12:07:10;26.50;99.90
55211;DHT22;41082;52.822;6.666;2023-07-28T12:12:15;26.30;99.90
55211;DHT22;41082;52.822;6.666;2023-07-28T12:14:41;26.20;99.90
55211;DHT22;41082;52.822;6.666;2023-07-28T12:17:14;26.10;99.90
55211;DHT22;41082;52.822;6.666;2023-07-28T12:20:02;26.20;99.90
55211;DHT22;41082;52.822;6.666;2023-07-28T12:22:47;26.30;99.90
55211;DHT22;41082;52.822;6.666;2023-07-28T12:25:13;26.40;99.90
55211;DHT22;41082;52.822;6.666;2023-07-28T12:27:40;26.30;99.90
55211;DHT22;41082;52.822;6.666;2023-07-28T12:30:06;26.20;99.90
55211;DHT22;41082;52.822;6.666;2023-07-28T12:32:34;26.20;99.90
55211;DHT22;41082;52.822;6.666;2023-07-28T12:35:00;26.30;99.90
55211;DHT22;41082;52.822;6.666;2023-07-28T12:37:25;26.30;99.90
55211;DHT22;41082;52.822;6.666;2023-07-28T12:39:51;26.30;99.90
55211;DHT22;41082;52.822;6.666;2023-07-28T12:42:16;26.30;99.90
55211;DHT22;41082;52.822;6.666;2023-07-28T12:44:42;26.30;99.90
55211;DHT22;41082;52.822;6.666;2023-07-28T12:47:08;26.40;99.90
55211;DHT22;41082;52.822;6.666;2023-07-28T12:49:34;26.50;99.90
55211;DHT22;41082;52.822;6.666;2023-07-28T12:52:04;26.50;99.90
55211;DHT22;41082;52.822;6.666;2023-07-28T12:54:32;26.60;99.90
55211;DHT22;41082;52.822;6.666;2023-07-28T12:56:57;26.60;99.90
55211;DHT22;41082;52.822;6.666;2023-07-28T12:59:23;26.60;99.90
55211;DHT22;41082;52.822;6.666;2023-07-28T13:01:48;26.60;99.90
55211;DHT22;41082;52.822;6.666;2023-07-28T13:04:14;26.60;99.90
55211;DHT22;41082;52.822;6.666;2023-07-28T13:06:40;26.70;99.90
55211;DHT22;41082;52.822;6.666;2023-07-28T13:09:07;26.60;99.90
55211;DHT22;41082;52.822;6.666;2023-07-28T13:11:33;26.40;99.90
55211;DHT22;41082;52.822;6.666;2023-07-28T13:13:59;26.30;99.90
55211;DHT22;41082;52.822;6.666;2023-07-28T13:16:24;26.20;99.90
55211;DHT22;41082;52.822;6.666;2023-07-28T13:18:50;26.10;99.90
55211;DHT22;41082;52.822;6.666;2023-07-28T13:21:16;26.00;99.90
55211;DHT22;41082;52.822;6.666;2023-07-28T13:23:41;26.00;99.90
55211;DHT22;41082;52.822;6.666;2023-07-28T13:26:07;26.00;99.90
55211;DHT22;41082;52.822;6.666;2023-07-28T13:28:33;26.00;99.90
55211;DHT22;41082;52.822;6.666;2023-07-28T13:31:01;26.00;99.90
55211;DHT22;41082;52.822;6.666;2023-07-28T13:33:26;26.00;99.90
55211;DHT22;41082;52.822;6.666;2023-07-28T13:35:52;26.10;99.90
55211;DHT22;41082;52.822;6.666;2023-07-28T13:38:18;26.20;99.90
55211;DHT22;41082;52.822;6.666;2023-07-28T13:40:43;26.20;99.90
55211;DHT22;41082;52.822;6.666;2023-07-28T13:43:09;26.30;99.90
55211;DHT22;41082;52.822;6.666;2023-07-28T13:45:34;26.40;99.90
55211;DHT22;41082;52.822;6.666;2023-07-28T13:48:00;26.40;99.90
55211;DHT22;41082;52.822;6.666;2023-07-28T13:50:25;26.40;99.90
55211;DHT22;41082;52.822;6.666;2023-07-28T13:52:51;26.40;99.90
55211;DHT22;41082;52.822;6.666;2023-07-28T13:55:16;26.50;99.90
55211;DHT22;41082;52.822;6.666;2023-07-28T13:57:43;26.40;99.90
55211;DHT22;41082;52.822;6.666;2023-07-28T14:00:09;26.40;99.90
55211;DHT22;41082;52.822;6.666;2023-07-28T14:02:36;26.40;99.90
55211;DHT22;41082;52.822;6.666;2023-07-28T14:05:02;26.40;99.90
55211;DHT22;41082;52.822;6.666;2023-07-28T14:07:28;26.40;99.90
55211;DHT22;41082;52.822;6.666;2023-07-28T14:09:53;26.40;99.90
55211;DHT22;41082;52.822;6.666;2023-07-28T14:12:19;26.20;99.90
55211;DHT22;41082;52.822;6.666;2023-07-28T14:14:44;26.20;99.90
55211;DHT22;41082;52.822;6.666;2023-07-28T14:17:10;26.20;99.90
55211;DHT22;41082;52.822;6.666;2023-07-28T14:19:38;26.10;99.90
55211;DHT22;41082;52.822;6.666;2023-07-28T14:22:05;26.10;99.90
55211;DHT22;41082;52.822;6.666;2023-07-28T14:24:31;26.10;99.90
55211;DHT22;41082;52.822;6.666;2023-07-28T14:26:56;26.10;99.90
55211;DHT22;41082;52.822;6.666;2023-07-28T14:29:22;26.10;99.90
55211;DHT22;41082;52.822;6.666;2023-07-28T14:31:48;26.10;99.90
55211;DHT22;41082;52.822;6.666;2023-07-28T14:34:14;26.10;99.90
55211;DHT22;41082;52.822;6.666;2023-07-28T14:36:40;26.20;99.90
55211;DHT22;41082;52.822;6.666;2023-07-28T14:39:05;26.30;99.90
55211;DHT22;41082;52.822;6.666;2023-07-28T14:41:31;26.30;99.90
55211;DHT22;41082;52.822;6.666;2023-07-28T14:43:57;26.30;99.90
55211;DHT22;41082;52.822;6.666;2023-07-28T14:46:23;26.20;99.90
55211;DHT22;41082;52.822;6.666;2023-07-28T14:48:50;26.30;99.90
55211;DHT22;41082;52.822;6.666;2023-07-28T14:51:16;26.30;99.90
55211;DHT22;41082;52.822;6.666;2023-07-28T14:53:42;26.30;99.90
55211;DHT22;41082;52.822;6.666;2023-07-28T14:56:10;26.50;99.90
55211;DHT22;41082;52.822;6.666;2023-07-28T14:58:36;26.50;99.90
55211;DHT22;41082;52.822;6.666;2023-07-28T15:01:02;26.50;99.90
55211;DHT22;41082;52.822;6.666;2023-07-28T15:03:30;26.40;99.90
55211;DHT22;41082;52.822;6.666;2023-07-28T15:05:58;26.30;99.90
55211;DHT22;41082;52.822;6.666;2023-07-28T15:08:24;26.10;99.90
55211;DHT22;41082;52.822;6.666;2023-07-28T15:10:49;26.00;99.90
55211;DHT22;41082;52.822;6.666;2023-07-28T15:13:15;26.00;99.90
55211;DHT22;41082;52.822;6.666;2023-07-28T15:15:41;26.00;99.90
55211;DHT22;41082;52.822;6.666;2023-07-28T15:18:06;26.20;99.90
55211;DHT22;41082;52.822;6.666;2023-07-28T15:20:33;26.30;99.90
55211;DHT22;41082;52.822;6.666;2023-07-28T15:22:59;26.50;99.90
55211;DHT22;41082;52.822;6.666;2023-07-28T15:25:25;26.50;99.90
55211;DHT22;41082;52.822;6.666;2023-07-28T15:27:51;26.60;99.90
55211;DHT22;41082;52.822;6.666;2023-07-28T15:30:17;26.70;99.90
55211;DHT22;41082;52.822;6.666;2023-07-28T15:32:42;26.70;99.90
55211;DHT22;41082;52.822;6.666;2023-07-28T15:35:08;26.80;99.90
55211;DHT22;41082;52.822;6.666;2023-07-28T15:37:34;26.80;99.90